sensor_id;sensor_type;location;lat;lon;timestamp;P1;durP1;ratioP1;P2;durP2;ratioP2
51298;SDS011;37382;45.192;9.790;2022-12-29T00:02:23;131.77;;;57.05;;
51298;SDS011;37382;45.192;9.790;2022-12-29T00:04:50;137.20;;;60.85;;
51298;SDS011;37382;45.192;9.790;2022-12-29T00:07:18;133.93;;;58.30;;
51298;SDS011;37382;45.192;9.790;2022-12-29T00:09:46;124.82;;;58.45;;
51298;SDS011;37382;45.192;9.790;2022-12-29T00:12:13;122.95;;;57.55;;
51298;SDS011;37382;45.192;9.790;2022-12-29T00:14:41;121.47;;;58.35;;
51298;SDS011;37382;45.192;9.790;2022-12-29T00:17:27;129.43;;;57.90;;
51298;SDS011;37382;45.192;9.790;2022-12-29T00:19:54;126.28;;;57.28;;
51298;SDS011;37382;45.192;9.790;2022-12-29T00:22:40;128.23;;;59.30;;
51298;SDS011;37382;45.192;9.790;2022-12-29T00:25:26;141.68;;;58.17;;
51298;SDS011;37382;45.192;9.790;2022-12-29T00:28:13;132.30;;;57.58;;
51298;SDS011;37382;45.192;9.790;2022-12-29T00:30:59;128.98;;;56.72;;
51298;SDS011;37382;45.192;9.790;2022-12-29T00:33:46;126.97;;;56.72;;
51298;SDS011;37382;45.192;9.790;2022-12-29T00:36:37;121.60;;;57.03;;
51298;SDS011;37382;45.192;9.790;2022-12-29T00:39:09;129.20;;;56.92;;
51298;SDS011;37382;45.192;9.790;2022-12-29T00:42:05;138.00;;;58.35;;
51298;SDS011;37382;45.192;9.790;2022-12-29T00:49:40;121.38;;;54.58;;
51298;SDS011;37382;45.192;9.790;2022-12-29T00:52:09;126.32;;;58.28;;
51298;SDS011;37382;45.192;9.790;2022-12-29T00:54:39;130.55;;;59.50;;
51298;SDS011;37382;45.192;9.790;2022-12-29T00:57:08;140.88;;;60.97;;
51298;SDS011;37382;45.192;9.790;2022-12-29T00:59:37;132.55;;;59.85;;
51298;SDS011;37382;45.192;9.790;2022-12-29T01:02:06;123.10;;;58.28;;
51298;SDS011;37382;45.192;9.790;2022-12-29T01:04:35;136.30;;;59.28;;
51298;SDS011;37382;45.192;9.790;2022-12-29T01:07:03;125.57;;;57.92;;
51298;SDS011;37382;45.192;9.790;2022-12-29T01:09:31;127.65;;;58.53;;
51298;SDS011;37382;45.192;9.790;2022-12-29T01:12:18;117.22;;;55.08;;
51298;SDS011;37382;45.192;9.790;2022-12-29T01:15:10;125.15;;;58.50;;
51298;SDS011;37382;45.192;9.790;2022-12-29T01:17:39;129.18;;;57.30;;
51298;SDS011;37382;45.192;9.790;2022-12-29T01:20:07;132.80;;;58.45;;
51298;SDS011;37382;45.192;9.790;2022-12-29T01:22:35;125.30;;;57.53;;
51298;SDS011;37382;45.192;9.790;2022-12-29T01:25:03;121.47;;;57.22;;
51298;SDS011;37382;45.192;9.790;2022-12-29T01:27:31;137.02;;;59.00;;
51298;SDS011;37382;45.192;9.790;2022-12-29T01:29:58;133.02;;;58.53;;
51298;SDS011;37382;45.192;9.790;2022-12-29T01:32:26;129.43;;;57.13;;
51298;SDS011;37382;45.192;9.790;2022-12-29T01:34:53;138.27;;;60.40;;
51298;SDS011;37382;45.192;9.790;2022-12-29T01:37:21;128.65;;;56.45;;
51298;SDS011;37382;45.192;9.790;2022-12-29T01:39:49;133.00;;;59.85;;
51298;SDS011;37382;45.192;9.790;2022-12-29T01:42:17;132.68;;;58.60;;
51298;SDS011;37382;45.192;9.790;2022-12-29T01:47:15;141.98;;;60.22;;
51298;SDS011;37382;45.192;9.790;2022-12-29T01:49:51;129.82;;;58.58;;
51298;SDS011;37382;45.192;9.790;2022-12-29T01:52:21;159.40;;;60.25;;
51298;SDS011;37382;45.192;9.790;2022-12-29T01:54:51;143.93;;;59.38;;
51298;SDS011;37382;45.192;9.790;2022-12-29T01:57:24;135.38;;;59.67;;
51298;SDS011;37382;45.192;9.790;2022-12-29T02:00:00;146.02;;;60.45;;
51298;SDS011;37382;45.192;9.790;2022-12-29T02:02:39;131.40;;;59.65;;
51298;SDS011;37382;45.192;9.790;2022-12-29T02:05:28;136.13;;;60.35;;
51298;SDS011;37382;45.192;9.790;2022-12-29T02:08:03;150.40;;;62.72;;
51298;SDS011;37382;45.192;9.790;2022-12-29T02:10:34;135.60;;;60.60;;
51298;SDS011;37382;45.192;9.790;2022-12-29T02:13:03;136.93;;;60.00;;
51298;SDS011;37382;45.192;9.790;2022-12-29T02:18:25;139.10;;;60.90;;
51298;SDS011;37382;45.192;9.790;2022-12-29T02:21:11;139.20;;;62.88;;
51298;SDS011;37382;45.192;9.790;2022-12-29T02:26:36;149.43;;;63.03;;
51298;SDS011;37382;45.192;9.790;2022-12-29T02:35:08;142.10;;;60.55;;
51298;SDS011;37382;45.192;9.790;2022-12-29T02:38:09;132.15;;;59.20;;
51298;SDS011;37382;45.192;9.790;2022-12-29T02:41:06;142.95;;;60.25;;
51298;SDS011;37382;45.192;9.790;2022-12-29T02:43:58;139.55;;;60.65;;
51298;SDS011;37382;45.192;9.790;2022-12-29T02:46:35;140.43;;;60.30;;
51298;SDS011;37382;45.192;9.790;2022-12-29T02:49:12;133.95;;;59.50;;
51298;SDS011;37382;45.192;9.790;2022-12-29T02:52:04;140.40;;;62.13;;
51298;SDS011;37382;45.192;9.790;2022-12-29T02:54:37;140.43;;;60.60;;
51298;SDS011;37382;45.192;9.790;2022-12-29T02:57:13;134.32;;;60.80;;
51298;SDS011;37382;45.192;9.790;2022-12-29T02:59:58;123.10;;;60.10;;
51298;SDS011;37382;45.192;9.790;2022-12-29T03:11:14;133.75;;;62.38;;
51298;SDS011;37382;45.192;9.790;2022-12-29T03:16:55;134.93;;;58.40;;
51298;SDS011;37382;45.192;9.790;2022-12-29T03:19:38;133.00;;;59.33;;
51298;SDS011;37382;45.192;9.790;2022-12-29T03:22:15;131.60;;;56.00;;
51298;SDS011;37382;45.192;9.790;2022-12-29T03:25:15;126.45;;;57.35;;
51298;SDS011;37382;45.192;9.790;2022-12-29T03:27:58;124.60;;;55.40;;
51298;SDS011;37382;45.192;9.790;2022-12-29T03:30:35;127.10;;;57.70;;
51298;SDS011;37382;45.192;9.790;2022-12-29T03:33:07;118.47;;;56.22;;
51298;SDS011;37382;45.192;9.790;2022-12-29T03:35:38;122.43;;;56.15;;
51298;SDS011;37382;45.192;9.790;2022-12-29T03:38:13;129.07;;;58.13;;
51298;SDS011;37382;45.192;9.790;2022-12-29T03:40:52;128.77;;;57.13;;
51298;SDS011;37382;45.192;9.790;2022-12-29T03:43:25;131.82;;;58.08;;
51298;SDS011;37382;45.192;9.790;2022-12-29T03:45:54;119.65;;;56.22;;
51298;SDS011;37382;45.192;9.790;2022-12-29T03:48:22;135.40;;;58.08;;
51298;SDS011;37382;45.192;9.790;2022-12-29T03:50:50;128.23;;;57.60;;
51298;SDS011;37382;45.192;9.790;2022-12-29T03:53:18;127.57;;;56.95;;
51298;SDS011;37382;45.192;9.790;2022-12-29T03:55:46;118.68;;;54.78;;
51298;SDS011;37382;45.192;9.790;2022-12-29T03:58:14;130.00;;;56.85;;
51298;SDS011;37382;45.192;9.790;2022-12-29T04:01:00;129.63;;;58.22;;
51298;SDS011;37382;45.192;9.790;2022-12-29T04:03:30;121.95;;;56.17;;
51298;SDS011;37382;45.192;9.790;2022-12-29T04:05:58;122.70;;;56.05;;
51298;SDS011;37382;45.192;9.790;2022-12-29T04:08:27;121.70;;;56.08;;
51298;SDS011;37382;45.192;9.790;2022-12-29T04:10:54;127.25;;;55.83;;
51298;SDS011;37382;45.192;9.790;2022-12-29T04:13:23;124.55;;;56.80;;
51298;SDS011;37382;45.192;9.790;2022-12-29T04:15:51;121.65;;;55.10;;
51298;SDS011;37382;45.192;9.790;2022-12-29T04:18:19;114.30;;;55.08;;
51298;SDS011;37382;45.192;9.790;2022-12-29T04:20:46;116.78;;;55.58;;
51298;SDS011;37382;45.192;9.790;2022-12-29T04:23:37;118.35;;;55.35;;
51298;SDS011;37382;45.192;9.790;2022-12-29T04:26:08;128.68;;;57.47;;
51298;SDS011;37382;45.192;9.790;2022-12-29T04:28:50;123.38;;;53.97;;
51298;SDS011;37382;45.192;9.790;2022-12-29T04:31:37;116.13;;;55.40;;
51298;SDS011;37382;45.192;9.790;2022-12-29T04:34:06;117.07;;;53.88;;
51298;SDS011;37382;45.192;9.790;2022-12-29T04:36:34;130.73;;;56.50;;
51298;SDS011;37382;45.192;9.790;2022-12-29T04:39:02;119.72;;;54.40;;
51298;SDS011;37382;45.192;9.790;2022-12-29T04:41:33;124.53;;;54.92;;
51298;SDS011;37382;45.192;9.790;2022-12-29T04:44:01;112.10;;;53.83;;
51298;SDS011;37382;45.192;9.790;2022-12-29T04:46:41;118.15;;;54.33;;
51298;SDS011;37382;45.192;9.790;2022-12-29T04:49:29;120.72;;;55.38;;
51298;SDS011;37382;45.192;9.790;2022-12-29T04:52:09;124.88;;;55.95;;
51298;SDS011;37382;45.192;9.790;2022-12-29T04:54:37;116.30;;;54.42;;
51298;SDS011;37382;45.192;9.790;2022-12-29T04:57:11;120.60;;;53.90;;
51298;SDS011;37382;45.192;9.790;2022-12-29T04:59:39;121.05;;;56.10;;
51298;SDS011;37382;45.192;9.790;2022-12-29T05:02:08;116.35;;;55.47;;
51298;SDS011;37382;45.192;9.790;2022-12-29T05:04:36;107.47;;;53.83;;
51298;SDS011;37382;45.192;9.790;2022-12-29T05:07:03;111.43;;;52.22;;
51298;SDS011;37382;45.192;9.790;2022-12-29T05:09:31;110.25;;;53.83;;
51298;SDS011;37382;45.192;9.790;2022-12-29T05:12:00;115.43;;;55.00;;
51298;SDS011;37382;45.192;9.790;2022-12-29T05:14:30;116.53;;;57.38;;
51298;SDS011;37382;45.192;9.790;2022-12-29T05:16:59;114.60;;;55.58;;
51298;SDS011;37382;45.192;9.790;2022-12-29T05:19:27;116.00;;;54.42;;
51298;SDS011;37382;45.192;9.790;2022-12-29T05:21:55;113.15;;;55.17;;
51298;SDS011;37382;45.192;9.790;2022-12-29T05:24:22;117.30;;;53.38;;
51298;SDS011;37382;45.192;9.790;2022-12-29T05:26:53;111.97;;;53.00;;
51298;SDS011;37382;45.192;9.790;2022-12-29T05:29:37;115.25;;;56.00;;
51298;SDS011;37382;45.192;9.790;2022-12-29T05:32:05;120.47;;;56.08;;
51298;SDS011;37382;45.192;9.790;2022-12-29T05:34:33;115.38;;;56.45;;
51298;SDS011;37382;45.192;9.790;2022-12-29T05:37:01;110.32;;;53.60;;
51298;SDS011;37382;45.192;9.790;2022-12-29T05:39:29;114.10;;;53.03;;
51298;SDS011;37382;45.192;9.790;2022-12-29T05:42:00;114.70;;;55.53;;
51298;SDS011;37382;45.192;9.790;2022-12-29T05:44:44;115.80;;;54.15;;
51298;SDS011;37382;45.192;9.790;2022-12-29T05:47:22;112.80;;;54.63;;
51298;SDS011;37382;45.192;9.790;2022-12-29T05:50:17;112.45;;;54.13;;
51298;SDS011;37382;45.192;9.790;2022-12-29T05:53:08;113.28;;;53.67;;
51298;SDS011;37382;45.192;9.790;2022-12-29T05:55:37;115.55;;;52.95;;
51298;SDS011;37382;45.192;9.790;2022-12-29T05:58:12;114.53;;;54.75;;
51298;SDS011;37382;45.192;9.790;2022-12-29T06:00:40;116.35;;;53.08;;
51298;SDS011;37382;45.192;9.790;2022-12-29T06:03:09;120.95;;;57.30;;
51298;SDS011;37382;45.192;9.790;2022-12-29T06:05:37;115.30;;;54.53;;
51298;SDS011;37382;45.192;9.790;2022-12-29T06:08:05;115.63;;;55.30;;
51298;SDS011;37382;45.192;9.790;2022-12-29T06:10:34;122.13;;;54.88;;
51298;SDS011;37382;45.192;9.790;2022-12-29T06:13:04;125.15;;;58.75;;
51298;SDS011;37382;45.192;9.790;2022-12-29T06:15:36;117.90;;;56.72;;
51298;SDS011;37382;45.192;9.790;2022-12-29T06:18:06;119.03;;;57.10;;
51298;SDS011;37382;45.192;9.790;2022-12-29T06:20:34;116.32;;;55.47;;
51298;SDS011;37382;45.192;9.790;2022-12-29T06:23:04;113.78;;;55.17;;
51298;SDS011;37382;45.192;9.790;2022-12-29T06:25:32;114.50;;;53.25;;
51298;SDS011;37382;45.192;9.790;2022-12-29T06:28:02;111.55;;;53.83;;
51298;SDS011;37382;45.192;9.790;2022-12-29T06:30:30;113.30;;;54.20;;
51298;SDS011;37382;45.192;9.790;2022-12-29T06:33:00;106.05;;;52.55;;
51298;SDS011;37382;45.192;9.790;2022-12-29T06:35:28;107.85;;;55.00;;
51298;SDS011;37382;45.192;9.790;2022-12-29T06:37:56;118.75;;;55.78;;
51298;SDS011;37382;45.192;9.790;2022-12-29T06:40:23;111.38;;;53.42;;
51298;SDS011;37382;45.192;9.790;2022-12-29T06:43:13;119.45;;;53.92;;
51298;SDS011;37382;45.192;9.790;2022-12-29T06:45:59;114.53;;;54.28;;
51298;SDS011;37382;45.192;9.790;2022-12-29T06:48:27;114.13;;;54.47;;
51298;SDS011;37382;45.192;9.790;2022-12-29T06:50:54;110.95;;;53.08;;
51298;SDS011;37382;45.192;9.790;2022-12-29T06:53:22;117.68;;;55.60;;
51298;SDS011;37382;45.192;9.790;2022-12-29T06:55:49;111.38;;;54.92;;
51298;SDS011;37382;45.192;9.790;2022-12-29T06:58:17;123.55;;;54.88;;
51298;SDS011;37382;45.192;9.790;2022-12-29T07:00:45;110.35;;;54.75;;
51298;SDS011;37382;45.192;9.790;2022-12-29T07:03:12;118.93;;;56.80;;
51298;SDS011;37382;45.192;9.790;2022-12-29T07:05:39;115.53;;;54.72;;
51298;SDS011;37382;45.192;9.790;2022-12-29T07:08:07;114.90;;;55.28;;
51298;SDS011;37382;45.192;9.790;2022-12-29T07:10:35;119.32;;;55.45;;
51298;SDS011;37382;45.192;9.790;2022-12-29T07:13:04;114.55;;;56.38;;
51298;SDS011;37382;45.192;9.790;2022-12-29T07:15:31;117.38;;;57.38;;
51298;SDS011;37382;45.192;9.790;2022-12-29T07:17:59;119.53;;;57.42;;
51298;SDS011;37382;45.192;9.790;2022-12-29T07:20:26;108.00;;;54.05;;
51298;SDS011;37382;45.192;9.790;2022-12-29T07:22:54;107.93;;;54.47;;
51298;SDS011;37382;45.192;9.790;2022-12-29T07:25:21;117.32;;;56.22;;
51298;SDS011;37382;45.192;9.790;2022-12-29T07:27:49;121.38;;;55.75;;
51298;SDS011;37382;45.192;9.790;2022-12-29T07:30:17;105.30;;;53.60;;
51298;SDS011;37382;45.192;9.790;2022-12-29T07:32:44;113.20;;;54.25;;
51298;SDS011;37382;45.192;9.790;2022-12-29T07:35:12;106.55;;;54.78;;
51298;SDS011;37382;45.192;9.790;2022-12-29T07:37:40;118.22;;;55.50;;
51298;SDS011;37382;45.192;9.790;2022-12-29T07:40:08;113.90;;;54.28;;
51298;SDS011;37382;45.192;9.790;2022-12-29T07:42:36;111.03;;;56.33;;
51298;SDS011;37382;45.192;9.790;2022-12-29T07:45:08;118.55;;;59.00;;
51298;SDS011;37382;45.192;9.790;2022-12-29T07:47:48;111.03;;;55.20;;
51298;SDS011;37382;45.192;9.790;2022-12-29T07:50:16;113.90;;;56.28;;
51298;SDS011;37382;45.192;9.790;2022-12-29T07:52:44;112.78;;;56.00;;
51298;SDS011;37382;45.192;9.790;2022-12-29T07:55:14;111.70;;;57.45;;
51298;SDS011;37382;45.192;9.790;2022-12-29T07:57:43;110.63;;;54.38;;
51298;SDS011;37382;45.192;9.790;2022-12-29T08:00:10;119.90;;;54.10;;
51298;SDS011;37382;45.192;9.790;2022-12-29T08:02:39;123.95;;;57.22;;
51298;SDS011;37382;45.192;9.790;2022-12-29T08:05:07;111.10;;;54.40;;
51298;SDS011;37382;45.192;9.790;2022-12-29T08:07:35;122.50;;;56.67;;
51298;SDS011;37382;45.192;9.790;2022-12-29T08:10:03;111.40;;;55.90;;
51298;SDS011;37382;45.192;9.790;2022-12-29T08:12:31;116.55;;;55.53;;
51298;SDS011;37382;45.192;9.790;2022-12-29T08:14:59;114.40;;;55.03;;
51298;SDS011;37382;45.192;9.790;2022-12-29T08:17:26;117.88;;;54.72;;
51298;SDS011;37382;45.192;9.790;2022-12-29T08:19:53;112.40;;;55.30;;
51298;SDS011;37382;45.192;9.790;2022-12-29T08:22:21;114.25;;;56.53;;
51298;SDS011;37382;45.192;9.790;2022-12-29T08:24:48;115.10;;;53.55;;
51298;SDS011;37382;45.192;9.790;2022-12-29T08:27:15;111.95;;;55.85;;
51298;SDS011;37382;45.192;9.790;2022-12-29T08:29:47;115.97;;;56.03;;
51298;SDS011;37382;45.192;9.790;2022-12-29T08:32:15;120.05;;;60.00;;
51298;SDS011;37382;45.192;9.790;2022-12-29T08:34:43;121.20;;;62.00;;
51298;SDS011;37382;45.192;9.790;2022-12-29T08:37:10;119.68;;;60.58;;
51298;SDS011;37382;45.192;9.790;2022-12-29T08:39:38;114.55;;;56.42;;
51298;SDS011;37382;45.192;9.790;2022-12-29T08:42:05;111.93;;;53.65;;
51298;SDS011;37382;45.192;9.790;2022-12-29T08:44:33;113.55;;;57.20;;
51298;SDS011;37382;45.192;9.790;2022-12-29T08:47:00;110.38;;;55.50;;
51298;SDS011;37382;45.192;9.790;2022-12-29T08:49:27;112.47;;;56.58;;
51298;SDS011;37382;45.192;9.790;2022-12-29T08:51:55;110.00;;;53.90;;
51298;SDS011;37382;45.192;9.790;2022-12-29T08:54:22;117.88;;;57.38;;
51298;SDS011;37382;45.192;9.790;2022-12-29T08:56:49;110.45;;;56.47;;
51298;SDS011;37382;45.192;9.790;2022-12-29T08:59:18;113.25;;;55.42;;
51298;SDS011;37382;45.192;9.790;2022-12-29T09:01:48;118.75;;;55.92;;
51298;SDS011;37382;45.192;9.790;2022-12-29T09:04:15;108.20;;;54.63;;
51298;SDS011;37382;45.192;9.790;2022-12-29T09:06:44;110.18;;;54.72;;
51298;SDS011;37382;45.192;9.790;2022-12-29T09:09:12;107.30;;;55.42;;
51298;SDS011;37382;45.192;9.790;2022-12-29T09:11:40;109.63;;;53.97;;
51298;SDS011;37382;45.192;9.790;2022-12-29T09:14:08;114.68;;;55.00;;
51298;SDS011;37382;45.192;9.790;2022-12-29T09:16:37;113.45;;;57.17;;
51298;SDS011;37382;45.192;9.790;2022-12-29T09:19:04;120.72;;;58.90;;
51298;SDS011;37382;45.192;9.790;2022-12-29T09:21:32;112.57;;;57.30;;
51298;SDS011;37382;45.192;9.790;2022-12-29T09:24:00;110.10;;;57.53;;
51298;SDS011;37382;45.192;9.790;2022-12-29T09:26:27;111.80;;;56.17;;
51298;SDS011;37382;45.192;9.790;2022-12-29T09:28:55;112.82;;;56.78;;
51298;SDS011;37382;45.192;9.790;2022-12-29T09:31:23;111.80;;;57.88;;
51298;SDS011;37382;45.192;9.790;2022-12-29T09:33:52;114.25;;;56.58;;
51298;SDS011;37382;45.192;9.790;2022-12-29T09:36:19;113.50;;;55.92;;
51298;SDS011;37382;45.192;9.790;2022-12-29T09:38:46;110.80;;;55.85;;
51298;SDS011;37382;45.192;9.790;2022-12-29T09:41:20;107.10;;;56.65;;
51298;SDS011;37382;45.192;9.790;2022-12-29T09:51:43;117.00;;;56.35;;
51298;SDS011;37382;45.192;9.790;2022-12-29T09:57:36;113.03;;;54.67;;
51298;SDS011;37382;45.192;9.790;2022-12-29T10:00:21;109.13;;;54.25;;
51298;SDS011;37382;45.192;9.790;2022-12-29T10:02:58;119.07;;;55.28;;
51298;SDS011;37382;45.192;9.790;2022-12-29T10:05:40;118.28;;;58.55;;
51298;SDS011;37382;45.192;9.790;2022-12-29T10:08:30;106.45;;;56.13;;
51298;SDS011;37382;45.192;9.790;2022-12-29T10:16:36;113.65;;;56.70;;
51298;SDS011;37382;45.192;9.790;2022-12-29T10:19:27;115.50;;;57.78;;
51298;SDS011;37382;45.192;9.790;2022-12-29T10:24:53;114.70;;;59.28;;
51298;SDS011;37382;45.192;9.790;2022-12-29T10:27:30;110.72;;;56.33;;
51298;SDS011;37382;45.192;9.790;2022-12-29T10:30:00;111.28;;;57.72;;
51298;SDS011;37382;45.192;9.790;2022-12-29T10:32:34;121.65;;;58.17;;
51298;SDS011;37382;45.192;9.790;2022-12-29T10:35:13;124.68;;;59.15;;
51298;SDS011;37382;45.192;9.790;2022-12-29T10:40:38;133.85;;;64.30;;
51298;SDS011;37382;45.192;9.790;2022-12-29T10:43:18;132.57;;;63.88;;
51298;SDS011;37382;45.192;9.790;2022-12-29T10:45:52;118.50;;;59.37;;
51298;SDS011;37382;45.192;9.790;2022-12-29T10:48:25;107.72;;;57.22;;
51298;SDS011;37382;45.192;9.790;2022-12-29T10:50:59;116.00;;;58.55;;
51298;SDS011;37382;45.192;9.790;2022-12-29T10:53:35;118.90;;;59.25;;
51298;SDS011;37382;45.192;9.790;2022-12-29T10:56:45;115.30;;;55.72;;
51298;SDS011;37382;45.192;9.790;2022-12-29T10:59:21;113.15;;;58.03;;
51298;SDS011;37382;45.192;9.790;2022-12-29T11:01:55;115.03;;;56.35;;
51298;SDS011;37382;45.192;9.790;2022-12-29T11:07:34;109.70;;;53.85;;
51298;SDS011;37382;45.192;9.790;2022-12-29T11:10:20;107.00;;;54.90;;
51298;SDS011;37382;45.192;9.790;2022-12-29T11:13:02;110.13;;;54.47;;
51298;SDS011;37382;45.192;9.790;2022-12-29T11:15:41;104.60;;;54.35;;
51298;SDS011;37382;45.192;9.790;2022-12-29T11:18:20;102.97;;;53.42;;
51298;SDS011;37382;45.192;9.790;2022-12-29T11:20:54;93.65;;;52.35;;
51298;SDS011;37382;45.192;9.790;2022-12-29T11:23:28;93.65;;;51.38;;
51298;SDS011;37382;45.192;9.790;2022-12-29T11:28:38;92.90;;;52.00;;
51298;SDS011;37382;45.192;9.790;2022-12-29T11:31:08;93.03;;;51.38;;
51298;SDS011;37382;45.192;9.790;2022-12-29T11:33:37;93.32;;;50.63;;
51298;SDS011;37382;45.192;9.790;2022-12-29T11:36:07;97.47;;;52.33;;
51298;SDS011;37382;45.192;9.790;2022-12-29T11:38:41;99.78;;;52.30;;
51298;SDS011;37382;45.192;9.790;2022-12-29T11:41:13;93.93;;;52.13;;
51298;SDS011;37382;45.192;9.790;2022-12-29T11:43:50;98.55;;;52.72;;
51298;SDS011;37382;45.192;9.790;2022-12-29T11:46:24;102.38;;;54.00;;
51298;SDS011;37382;45.192;9.790;2022-12-29T11:48:55;102.22;;;53.75;;
51298;SDS011;37382;45.192;9.790;2022-12-29T11:51:29;107.15;;;55.85;;
51298;SDS011;37382;45.192;9.790;2022-12-29T11:54:03;106.55;;;55.33;;
51298;SDS011;37382;45.192;9.790;2022-12-29T11:56:33;96.25;;;54.47;;
51298;SDS011;37382;45.192;9.790;2022-12-29T12:02:42;102.20;;;53.58;;
51298;SDS011;37382;45.192;9.790;2022-12-29T12:07:56;103.05;;;57.92;;
51298;SDS011;37382;45.192;9.790;2022-12-29T12:10:49;101.93;;;54.42;;
51298;SDS011;37382;45.192;9.790;2022-12-29T12:13:41;102.07;;;54.63;;
51298;SDS011;37382;45.192;9.790;2022-12-29T12:16:25;95.93;;;51.38;;
51298;SDS011;37382;45.192;9.790;2022-12-29T12:19:39;102.22;;;53.58;;
51298;SDS011;37382;45.192;9.790;2022-12-29T12:22:21;94.18;;;50.80;;
51298;SDS011;37382;45.192;9.790;2022-12-29T12:25:20;95.20;;;52.22;;
51298;SDS011;37382;45.192;9.790;2022-12-29T12:27:58;104.10;;;52.17;;
51298;SDS011;37382;45.192;9.790;2022-12-29T12:30:40;102.65;;;52.20;;
51298;SDS011;37382;45.192;9.790;2022-12-29T12:33:22;96.70;;;51.80;;
51298;SDS011;37382;45.192;9.790;2022-12-29T12:44:01;90.40;;;51.85;;
51298;SDS011;37382;45.192;9.790;2022-12-29T13:00:41;115.50;;;61.63;;
51298;SDS011;37382;45.192;9.790;2022-12-29T13:03:43;92.30;;;52.63;;
51298;SDS011;37382;45.192;9.790;2022-12-29T13:23:26;82.07;;;46.97;;
51298;SDS011;37382;45.192;9.790;2022-12-29T13:26:08;81.43;;;45.92;;
51298;SDS011;37382;45.192;9.790;2022-12-29T13:31:33;75.68;;;44.35;;
51298;SDS011;37382;45.192;9.790;2022-12-29T13:34:25;76.63;;;44.78;;
51298;SDS011;37382;45.192;9.790;2022-12-29T13:37:09;76.50;;;43.25;;
51298;SDS011;37382;45.192;9.790;2022-12-29T13:40:03;69.75;;;40.65;;
51298;SDS011;37382;45.192;9.790;2022-12-29T13:42:40;72.15;;;41.38;;
51298;SDS011;37382;45.192;9.790;2022-12-29T13:45:13;76.45;;;41.75;;
51298;SDS011;37382;45.192;9.790;2022-12-29T13:47:51;66.28;;;40.75;;
51298;SDS011;37382;45.192;9.790;2022-12-29T13:50:23;75.32;;;42.80;;
51298;SDS011;37382;45.192;9.790;2022-12-29T13:55:37;84.45;;;46.90;;
51298;SDS011;37382;45.192;9.790;2022-12-29T13:58:14;83.18;;;44.92;;
51298;SDS011;37382;45.192;9.790;2022-12-29T14:03:20;67.45;;;41.05;;
51298;SDS011;37382;45.192;9.790;2022-12-29T14:08:55;61.78;;;36.92;;
51298;SDS011;37382;45.192;9.790;2022-12-29T14:11:30;68.65;;;38.08;;
51298;SDS011;37382;45.192;9.790;2022-12-29T14:14:19;61.15;;;37.15;;
51298;SDS011;37382;45.192;9.790;2022-12-29T14:16:51;74.32;;;42.05;;
51298;SDS011;37382;45.192;9.790;2022-12-29T14:19:27;76.03;;;42.50;;
51298;SDS011;37382;45.192;9.790;2022-12-29T14:21:59;65.85;;;40.38;;
51298;SDS011;37382;45.192;9.790;2022-12-29T14:34:56;67.47;;;39.35;;
51298;SDS011;37382;45.192;9.790;2022-12-29T14:42:46;62.78;;;37.85;;
51298;SDS011;37382;45.192;9.790;2022-12-29T14:47:45;71.13;;;41.17;;
51298;SDS011;37382;45.192;9.790;2022-12-29T14:52:52;73.47;;;38.92;;
51298;SDS011;37382;45.192;9.790;2022-12-29T14:58:16;67.80;;;41.00;;
51298;SDS011;37382;45.192;9.790;2022-12-29T15:00:49;71.95;;;39.20;;
51298;SDS011;37382;45.192;9.790;2022-12-29T15:03:18;71.75;;;40.80;;
51298;SDS011;37382;45.192;9.790;2022-12-29T15:05:54;69.70;;;41.28;;
51298;SDS011;37382;45.192;9.790;2022-12-29T15:08:25;70.63;;;40.28;;
51298;SDS011;37382;45.192;9.790;2022-12-29T15:11:15;71.68;;;41.60;;
51298;SDS011;37382;45.192;9.790;2022-12-29T15:13:46;69.32;;;39.25;;
51298;SDS011;37382;45.192;9.790;2022-12-29T15:18:53;68.32;;;40.38;;
51298;SDS011;37382;45.192;9.790;2022-12-29T15:21:23;67.85;;;39.72;;
51298;SDS011;37382;45.192;9.790;2022-12-29T15:23:53;69.00;;;41.15;;
51298;SDS011;37382;45.192;9.790;2022-12-29T15:26:21;68.50;;;40.95;;
51298;SDS011;37382;45.192;9.790;2022-12-29T15:28:52;68.43;;;41.92;;
51298;SDS011;37382;45.192;9.790;2022-12-29T15:31:22;73.68;;;42.47;;
51298;SDS011;37382;45.192;9.790;2022-12-29T15:34:08;70.75;;;41.63;;
51298;SDS011;37382;45.192;9.790;2022-12-29T15:36:39;77.05;;;44.03;;
51298;SDS011;37382;45.192;9.790;2022-12-29T15:39:20;78.65;;;43.60;;
51298;SDS011;37382;45.192;9.790;2022-12-29T15:42:18;74.20;;;44.17;;
51298;SDS011;37382;45.192;9.790;2022-12-29T15:44:54;77.88;;;44.20;;
51298;SDS011;37382;45.192;9.790;2022-12-29T15:47:36;75.13;;;43.30;;
51298;SDS011;37382;45.192;9.790;2022-12-29T15:50:06;79.78;;;44.97;;
51298;SDS011;37382;45.192;9.790;2022-12-29T15:52:41;77.13;;;45.80;;
51298;SDS011;37382;45.192;9.790;2022-12-29T15:55:17;100.93;;;60.42;;
51298;SDS011;37382;45.192;9.790;2022-12-29T15:57:58;96.38;;;57.47;;
51298;SDS011;37382;45.192;9.790;2022-12-29T16:00:27;88.50;;;52.95;;
51298;SDS011;37382;45.192;9.790;2022-12-29T16:03:00;90.18;;;49.63;;
51298;SDS011;37382;45.192;9.790;2022-12-29T16:05:38;81.25;;;49.42;;
51298;SDS011;37382;45.192;9.790;2022-12-29T16:14:06;69.45;;;41.33;;
51298;SDS011;37382;45.192;9.790;2022-12-29T16:19:15;93.20;;;54.00;;
51298;SDS011;37382;45.192;9.790;2022-12-29T16:21:47;90.93;;;56.50;;
51298;SDS011;37382;45.192;9.790;2022-12-29T16:24:16;82.05;;;49.13;;
51298;SDS011;37382;45.192;9.790;2022-12-29T16:26:49;81.63;;;44.80;;
51298;SDS011;37382;45.192;9.790;2022-12-29T16:29:25;89.28;;;52.50;;
51298;SDS011;37382;45.192;9.790;2022-12-29T16:31:57;73.07;;;43.53;;
51298;SDS011;37382;45.192;9.790;2022-12-29T16:34:32;74.20;;;44.63;;
51298;SDS011;37382;45.192;9.790;2022-12-29T16:42:49;74.85;;;43.85;;
51298;SDS011;37382;45.192;9.790;2022-12-29T16:47:46;79.60;;;46.60;;
51298;SDS011;37382;45.192;9.790;2022-12-29T16:50:36;81.15;;;45.75;;
51298;SDS011;37382;45.192;9.790;2022-12-29T16:53:20;82.13;;;47.22;;
51298;SDS011;37382;45.192;9.790;2022-12-29T16:55:53;80.60;;;47.58;;
51298;SDS011;37382;45.192;9.790;2022-12-29T16:58:24;85.63;;;47.20;;
51298;SDS011;37382;45.192;9.790;2022-12-29T17:00:56;83.90;;;47.83;;
51298;SDS011;37382;45.192;9.790;2022-12-29T17:03:30;83.55;;;47.85;;
51298;SDS011;37382;45.192;9.790;2022-12-29T17:06:00;79.90;;;47.65;;
51298;SDS011;37382;45.192;9.790;2022-12-29T17:08:27;82.20;;;45.90;;
51298;SDS011;37382;45.192;9.790;2022-12-29T17:10:55;78.20;;;48.33;;
51298;SDS011;37382;45.192;9.790;2022-12-29T17:13:43;88.63;;;49.58;;
51298;SDS011;37382;45.192;9.790;2022-12-29T17:16:10;84.20;;;48.22;;
51298;SDS011;37382;45.192;9.790;2022-12-29T17:18:38;85.38;;;49.17;;
51298;SDS011;37382;45.192;9.790;2022-12-29T17:21:06;78.20;;;48.28;;
51298;SDS011;37382;45.192;9.790;2022-12-29T17:23:33;81.93;;;49.55;;
51298;SDS011;37382;45.192;9.790;2022-12-29T17:26:02;88.88;;;51.63;;
51298;SDS011;37382;45.192;9.790;2022-12-29T17:28:29;83.10;;;49.47;;